createdAt,value
2023-04-10T00:00:57.357Z,8.02
2023-04-10T00:03:25.505Z,8.07
2023-04-10T00:05:53.113Z,8.08
2023-04-10T00:08:21.837Z,8.21
2023-04-10T00:10:48.896Z,8.19
2023-04-10T00:13:16.632Z,8.18
2023-04-10T00:15:44.081Z,8.22
2023-04-10T00:18:11.935Z,8.19
2023-04-10T00:20:39.387Z,8.14
2023-04-10T00:23:07.807Z,8.18
2023-04-10T00:25:36.425Z,8.21
2023-04-10T00:28:04.157Z,8.21
2023-04-10T00:30:31.830Z,8.07
2023-04-10T00:32:59.212Z,8.04
2023-04-10T00:35:26.359Z,8.03
2023-04-10T00:37:53.625Z,8.00
2023-04-10T00:40:20.720Z,7.98
2023-04-10T00:42:49.177Z,7.89
2023-04-10T00:45:16.362Z,7.65
2023-04-10T00:47:44.075Z,7.69
2023-04-10T00:50:11.783Z,7.65
2023-04-10T00:52:39.481Z,7.69
2023-04-10T00:55:09.459Z,7.73
2023-04-10T00:57:38.038Z,7.72
2023-04-10T01:00:09.385Z,7.70
2023-04-10T01:02:36.819Z,7.66
2023-04-10T01:05:07.540Z,7.63
2023-04-10T01:07:58.777Z,7.62
2023-04-10T01:10:45.813Z,7.55
2023-04-10T01:13:22.668Z,7.33
2023-04-10T01:16:01.673Z,7.17
2023-04-10T01:18:38.020Z,7.18
2023-04-10T01:21:11.052Z,7.24
2023-04-10T01:24:07.608Z,7.28
2023-04-10T01:27:12.830Z,7.35
2023-04-10T01:29:47.993Z,7.39
2023-04-10T01:32:22.020Z,7.38
2023-04-10T01:34:54.150Z,7.33
2023-04-10T01:37:27.709Z,7.29
2023-04-10T01:40:01.063Z,7.14
2023-04-10T01:42:32.317Z,7.08
2023-04-10T01:45:04.791Z,7.10
2023-04-10T01:47:32.431Z,7.02
2023-04-10T01:50:01.361Z,6.97
2023-04-10T01:52:31.316Z,6.99
2023-04-10T01:55:21.492Z,6.98
2023-04-10T01:57:55.051Z,6.92
2023-04-10T02:00:25.012Z,6.89
2023-04-10T02:02:52.412Z,6.89
2023-04-10T02:05:21.002Z,6.87
2023-04-10T02:08:02.180Z,6.82
2023-04-10T02:10:39.568Z,6.82
2023-04-10T02:13:11.634Z,6.77
2023-04-10T02:15:46.320Z,6.67
2023-04-10T02:18:17.816Z,6.65
2023-04-10T02:20:45.840Z,6.67
2023-04-10T02:23:15.732Z,6.67
2023-04-10T02:25:43.036Z,6.67
2023-04-10T02:28:10.103Z,6.67
2023-04-10T02:30:37.357Z,6.65
2023-04-10T02:33:06.561Z,6.58
2023-04-10T02:35:34.771Z,6.54
2023-04-10T02:38:03.855Z,6.53
2023-04-10T02:40:32.318Z,6.57
2023-04-10T02:43:13.161Z,6.56
2023-04-10T02:45:40.882Z,6.50
2023-04-10T02:48:11.260Z,6.53
2023-04-10T02:50:39.022Z,6.52
2023-04-10T02:53:06.397Z,6.48
2023-04-10T02:55:33.746Z,6.46
2023-04-10T02:58:00.978Z,6.37
2023-04-10T03:00:30.945Z,6.37
2023-04-10T03:03:21.324Z,6.37
2023-04-10T03:05:58.418Z,6.38
2023-04-10T03:08:48.467Z,6.50
2023-04-10T03:11:15.579Z,6.45
2023-04-10T03:13:42.791Z,6.30
2023-04-10T03:16:10.254Z,6.30
2023-04-10T03:18:39.387Z,6.30
2023-04-10T03:21:08.425Z,6.26
2023-04-10T03:23:35.984Z,6.17
2023-04-10T03:26:03.550Z,6.08
2023-04-10T03:28:33.824Z,6.09
2023-04-10T03:31:01.557Z,6.07
2023-04-10T03:33:30.985Z,6.03
2023-04-10T03:36:01.842Z,6.01
2023-04-10T03:38:28.973Z,5.97
2023-04-10T03:40:56.421Z,5.96
2023-04-10T03:43:26.020Z,5.96
2023-04-10T03:45:53.279Z,5.92
2023-04-10T03:48:21.437Z,5.92
2023-04-10T03:50:48.791Z,5.81
2023-04-10T03:53:17.628Z,5.66
2023-04-10T03:55:45.818Z,5.38
2023-04-10T03:58:13.110Z,5.25
2023-04-10T04:00:40.481Z,5.11
2023-04-10T04:03:14.036Z,4.98
2023-04-10T04:05:57.081Z,4.96
2023-04-10T04:08:45.357Z,5.06
2023-04-10T04:11:38.179Z,5.11
2023-04-10T04:14:13.160Z,5.04
2023-04-10T04:16:47.733Z,4.90
2023-04-10T04:19:31.980Z,4.82
2023-04-10T04:22:28.686Z,4.89
2023-04-10T04:25:09.075Z,4.80
2023-04-10T04:27:51.810Z,4.90
2023-04-10T04:30:42.258Z,5.00
2023-04-10T04:33:17.178Z,5.16
2023-04-10T04:36:22.370Z,5.30
2023-04-10T04:39:12.254Z,5.42
2023-04-10T04:42:04.397Z,5.53
2023-04-10T04:44:52.537Z,5.60
2023-04-10T04:47:38.221Z,5.68
2023-04-10T04:50:15.161Z,5.69
2023-04-10T04:52:57.940Z,5.20
2023-04-10T04:55:31.185Z,5.07
2023-04-10T04:58:31.895Z,5.41
2023-04-10T05:01:17.835Z,5.79
2023-04-10T05:03:54.365Z,6.24
2023-04-10T05:06:40.809Z,6.68
2023-04-10T05:09:15.914Z,7.11
2023-04-10T05:12:00.686Z,7.58
2023-04-10T05:14:51.922Z,8.25
2023-04-10T05:17:45.043Z,8.61
2023-04-10T05:20:18.369Z,8.96
2023-04-10T05:23:05.789Z,8.83
2023-04-10T05:25:51.282Z,8.52
2023-04-10T05:28:21.931Z,8.21
2023-04-10T05:31:10.490Z,8.35
2023-04-10T05:33:50.723Z,8.57
2023-04-10T05:36:36.455Z,8.84
2023-04-10T05:39:08.450Z,9.05
2023-04-10T05:41:51.651Z,9.46
2023-04-10T05:44:24.008Z,9.90
2023-04-10T05:47:02.095Z,10.52
2023-04-10T05:49:48.107Z,11.09
2023-04-10T05:52:17.944Z,11.21
2023-04-10T05:55:09.583Z,11.11
2023-04-10T05:58:15.010Z,11.28
2023-04-10T06:01:11.653Z,10.98
2023-04-10T06:03:49.572Z,11.04
2023-04-10T06:06:21.126Z,11.37
2023-04-10T06:08:48.689Z,11.51
2023-04-10T06:11:15.630Z,11.70
2023-04-10T06:13:47.437Z,11.85
2023-04-10T06:16:14.391Z,11.70
2023-04-10T06:18:42.385Z,11.61
2023-04-10T06:21:11.706Z,11.69
2023-04-10T06:23:39.068Z,11.86
2023-04-10T06:26:06.683Z,12.20
2023-04-10T06:28:33.507Z,12.06
2023-04-10T06:31:03.479Z,12.55
2023-04-10T06:33:34.282Z,13.10
2023-04-10T06:36:28.308Z,13.66
2023-04-10T06:39:00.737Z,14.13
2023-04-10T06:41:27.882Z,14.33
2023-04-10T06:43:57.543Z,14.56
2023-04-10T06:46:24.651Z,14.70
2023-04-10T06:48:51.629Z,15.13
2023-04-10T06:51:18.576Z,15.14
2023-04-10T06:53:47.560Z,14.75
2023-04-10T06:56:14.394Z,15.40
2023-04-10T06:58:41.269Z,16.53
2023-04-10T07:01:08.260Z,17.57
2023-04-10T07:03:35.879Z,18.51
2023-04-10T07:06:03.920Z,18.69
2023-04-10T07:08:30.884Z,19.10
2023-04-10T07:10:59.169Z,19.15
2023-04-10T07:13:26.115Z,18.62
2023-04-10T07:15:53.102Z,18.75
2023-04-10T07:18:22.444Z,18.90
2023-04-10T07:20:51.300Z,19.90
2023-04-10T07:23:18.557Z,20.43
2023-04-10T07:26:13.772Z,20.24
2023-04-10T07:28:40.832Z,20.65
2023-04-10T07:31:09.053Z,20.68
2023-04-10T07:33:36.185Z,20.41
2023-04-10T07:36:03.496Z,20.63
2023-04-10T07:38:30.416Z,20.36
2023-04-10T07:40:57.712Z,20.84
2023-04-10T07:43:26.445Z,21.18
2023-04-10T07:45:53.465Z,21.63
2023-04-10T07:48:20.595Z,22.39
2023-04-10T07:50:47.667Z,21.96
2023-04-10T07:53:14.631Z,21.54
2023-04-10T07:55:44.243Z,21.80
2023-04-10T07:58:11.837Z,20.35
2023-04-10T08:00:40.368Z,20.81
2023-04-10T08:03:08.593Z,21.91
2023-04-10T08:05:35.612Z,22.79
2023-04-10T08:08:02.622Z,23.14
2023-04-10T08:10:29.557Z,21.66
2023-04-10T08:12:57.018Z,22.86
2023-04-10T08:15:24.028Z,23.41
2023-04-10T08:17:52.321Z,22.32
2023-04-10T08:20:19.515Z,21.08
2023-04-10T08:22:46.426Z,19.98
2023-04-10T08:25:13.337Z,19.12
2023-04-10T08:27:40.330Z,17.93
2023-04-10T08:30:08.815Z,16.80
2023-04-10T08:32:36.219Z,17.37
2023-04-10T08:35:06.002Z,17.66
2023-04-10T08:37:33.446Z,18.87
2023-04-10T08:40:00.364Z,17.55
2023-04-10T08:42:27.469Z,16.83
2023-04-10T08:44:54.839Z,16.84
2023-04-10T08:47:27.652Z,16.29
2023-04-10T08:49:57.819Z,16.44
2023-04-10T08:52:30.638Z,16.27
2023-04-10T08:55:02.536Z,17.25
2023-04-10T08:57:30.092Z,17.86
2023-04-10T08:59:59.481Z,18.66
2023-04-10T09:02:40.872Z,17.27
2023-04-10T09:05:12.092Z,16.06
2023-04-10T09:07:41.817Z,16.25
2023-04-10T09:10:10.309Z,15.99
2023-04-10T09:12:44.796Z,15.82
2023-04-10T09:15:12.329Z,15.65
2023-04-10T09:17:55.213Z,15.97
2023-04-10T09:20:25.195Z,16.05
2023-04-10T09:22:54.207Z,16.19
2023-04-10T09:25:33.956Z,16.41
2023-04-10T09:28:04.238Z,15.56
2023-04-10T09:30:40.036Z,15.50
2023-04-10T09:33:24.914Z,16.20
2023-04-10T09:35:51.942Z,16.71
2023-04-10T09:38:21.679Z,15.48
2023-04-10T09:40:49.644Z,15.69
2023-04-10T09:43:22.494Z,16.13
2023-04-10T09:45:52.246Z,15.94
2023-04-10T09:48:20.831Z,16.25
2023-04-10T09:50:48.727Z,16.08
2023-04-10T09:53:18.154Z,16.17
2023-04-10T09:55:48.424Z,16.22
2023-04-10T09:58:17.499Z,16.21
2023-04-10T10:00:46.696Z,16.90
2023-04-10T10:03:17.003Z,17.15
2023-04-10T10:05:46.259Z,17.11
2023-04-10T10:08:15.670Z,16.53
2023-04-10T10:10:50.662Z,16.64
2023-04-10T10:13:35.577Z,17.29
2023-04-10T10:16:12.968Z,16.87
2023-04-10T10:18:50.868Z,17.10
2023-04-10T10:21:20.625Z,16.97
2023-04-10T10:23:49.505Z,17.04
2023-04-10T10:26:19.499Z,17.52
2023-04-10T10:28:47.362Z,17.27
2023-04-10T10:31:16.239Z,17.24
2023-04-10T10:33:44.262Z,16.90
2023-04-10T10:36:12.070Z,17.17
2023-04-10T10:38:48.171Z,17.26
2023-04-10T10:41:28.682Z,17.25
2023-04-10T10:44:08.323Z,17.17
2023-04-10T10:46:44.554Z,17.02
2023-04-10T10:49:11.524Z,17.14
2023-04-10T10:51:47.299Z,17.60
2023-04-10T10:54:34.562Z,17.69
2023-04-10T10:57:03.605Z,17.14
2023-04-10T10:59:55.856Z,17.84
2023-04-10T11:02:23.829Z,17.87
2023-04-10T11:04:50.869Z,17.83
2023-04-10T11:07:18.330Z,19.15
2023-04-10T11:09:51.969Z,18.65
2023-04-10T11:12:23.428Z,19.11
2023-04-10T11:15:01.390Z,19.32
2023-04-10T11:17:50.425Z,19.07
2023-04-10T11:20:18.574Z,19.11
2023-04-10T11:23:12.141Z,19.20
2023-04-10T11:25:51.051Z,18.64
2023-04-10T11:28:39.341Z,19.36
2023-04-10T11:31:21.312Z,18.87
2023-04-10T11:33:50.501Z,18.38
2023-04-10T11:36:17.782Z,18.36
2023-04-10T11:38:55.879Z,18.43
2023-04-10T11:41:28.476Z,18.54
2023-04-10T11:43:57.720Z,18.60
2023-04-10T11:46:24.907Z,19.51
2023-04-10T11:48:58.828Z,19.81
2023-04-10T11:51:25.980Z,19.95
2023-04-10T11:54:06.511Z,19.27
2023-04-10T11:56:33.753Z,19.79
2023-04-10T11:59:02.511Z,19.02
2023-04-10T12:01:29.850Z,18.68
2023-04-10T12:03:57.311Z,18.35
2023-04-10T12:06:24.774Z,18.36
2023-04-10T12:08:52.793Z,18.57
2023-04-10T12:11:22.144Z,18.18
2023-04-10T12:13:53.289Z,18.04
2023-04-10T12:16:22.599Z,18.34
2023-04-10T12:18:50.478Z,18.58
2023-04-10T12:21:18.816Z,18.17
2023-04-10T12:23:45.688Z,18.23
2023-04-10T12:26:15.740Z,18.42
2023-04-10T12:28:52.346Z,18.03
2023-04-10T12:31:28.815Z,18.06
2023-04-10T12:33:56.176Z,18.33
2023-04-10T12:36:24.651Z,18.26
2023-04-10T12:38:51.790Z,18.23
2023-04-10T12:41:23.384Z,18.10
2023-04-10T12:43:51.956Z,18.16
2023-04-10T12:46:28.586Z,18.22
2023-04-10T12:48:56.416Z,18.27
2023-04-10T12:51:42.101Z,18.06
2023-04-10T12:54:09.084Z,18.25
2023-04-10T12:56:43.080Z,18.34
2023-04-10T12:59:10.778Z,18.47
2023-04-10T13:01:39.550Z,18.40
2023-04-10T13:04:06.938Z,18.56
2023-04-10T13:06:42.518Z,18.57
2023-04-10T13:09:09.422Z,18.58
2023-04-10T13:11:37.043Z,18.66
2023-04-10T13:14:04.183Z,18.68
2023-04-10T13:16:31.480Z,18.50
2023-04-10T13:19:01.336Z,18.65
2023-04-10T13:21:29.039Z,18.80
2023-04-10T13:23:56.201Z,18.66
2023-04-10T13:26:23.391Z,18.47
2023-04-10T13:28:50.671Z,18.65
2023-04-10T13:31:17.695Z,18.47
2023-04-10T13:33:46.187Z,18.33
2023-04-10T13:36:15.405Z,18.63
2023-04-10T13:38:42.764Z,18.63
2023-04-10T13:41:09.992Z,18.64
2023-04-10T13:43:37.189Z,18.88
2023-04-10T13:46:04.325Z,18.94
2023-04-10T13:48:54.450Z,18.77
2023-04-10T13:51:19.548Z,18.64
2023-04-10T13:53:46.703Z,18.78
2023-04-10T13:56:13.565Z,18.72
2023-04-10T13:58:40.463Z,18.59
2023-04-10T14:01:08.062Z,18.62
2023-04-10T14:03:35.028Z,18.74
2023-04-10T14:06:02.499Z,18.75
2023-04-10T14:08:30.924Z,18.80
2023-04-10T14:10:57.844Z,18.70
2023-04-10T14:13:25.009Z,18.72
2023-04-10T14:15:52.101Z,18.93
2023-04-10T14:18:19.112Z,18.84
2023-04-10T14:20:46.157Z,18.69
2023-04-10T14:23:13.256Z,18.69
2023-04-10T14:25:41.709Z,18.83
2023-04-10T14:28:08.690Z,19.24
2023-04-10T14:30:35.658Z,18.92
2023-04-10T14:33:02.554Z,19.15
2023-04-10T14:35:29.466Z,19.08
2023-04-10T14:37:56.747Z,19.11
2023-04-10T14:40:25.901Z,18.81
2023-04-10T14:42:54.128Z,18.78
2023-04-10T14:45:21.050Z,18.76
2023-04-10T14:47:48.194Z,18.89
2023-04-10T14:50:15.311Z,18.88
2023-04-10T14:52:42.171Z,18.58
2023-04-10T14:55:10.382Z,18.39
2023-04-10T14:57:37.613Z,18.51
2023-04-10T15:00:08.212Z,18.52
2023-04-10T15:02:35.979Z,18.78
2023-04-10T15:05:03.053Z,18.74
2023-04-10T15:07:30.097Z,18.80
2023-04-10T15:09:57.725Z,18.90
2023-04-10T15:12:25.342Z,18.86
2023-04-10T15:14:52.349Z,18.87
2023-04-10T15:17:23.512Z,18.86
2023-04-10T15:19:51.844Z,18.91
2023-04-10T15:22:18.754Z,18.62
2023-04-10T15:24:50.632Z,18.71
2023-04-10T15:27:19.925Z,18.57
2023-04-10T15:29:47.030Z,18.54
2023-04-10T15:32:14.276Z,18.51
2023-04-10T15:34:43.845Z,18.54
2023-04-10T15:37:10.680Z,18.61
2023-04-10T15:39:37.553Z,18.51
2023-04-10T15:42:06.249Z,18.43
2023-04-10T15:44:33.172Z,18.48
2023-04-10T15:47:00.040Z,18.45
2023-04-10T15:49:37.262Z,18.45
2023-04-10T15:52:07.204Z,18.43
2023-04-10T15:54:35.387Z,18.46
2023-04-10T15:57:03.703Z,18.45
2023-04-10T15:59:31.141Z,18.46
2023-04-10T16:01:58.337Z,18.40
2023-04-10T16:04:25.341Z,18.38
2023-04-10T16:06:53.125Z,18.35
2023-04-10T16:09:26.221Z,18.38
2023-04-10T16:11:54.345Z,18.22
2023-04-10T16:14:21.899Z,18.24
2023-04-10T16:16:48.984Z,18.27
2023-04-10T16:19:15.945Z,18.27
2023-04-10T16:21:42.946Z,18.30
2023-04-10T16:24:40.211Z,18.30
2023-04-10T16:27:07.288Z,18.19
2023-04-10T16:29:34.906Z,18.06
2023-04-10T16:32:02.009Z,18.02
2023-04-10T16:34:28.840Z,17.97
2023-04-10T16:37:24.321Z,17.89
2023-04-10T16:39:52.771Z,17.89
2023-04-10T16:42:19.765Z,17.78
2023-04-10T16:46:02.160Z,17.81
2023-04-10T16:48:29.595Z,17.75
2023-04-10T16:50:58.372Z,17.75
2023-04-10T16:53:27.192Z,17.58
2023-04-10T16:56:01.535Z,17.58
2023-04-10T16:58:30.583Z,17.50
2023-04-10T17:00:57.611Z,17.43
2023-04-10T17:03:24.873Z,17.39
2023-04-10T17:05:52.388Z,17.33
2023-04-10T17:08:19.480Z,17.25
2023-04-10T17:10:46.680Z,17.24
2023-04-10T17:13:14.930Z,17.21
2023-04-10T17:15:41.807Z,17.18
2023-04-10T17:18:08.844Z,17.18
2023-04-10T17:20:36.278Z,17.10
2023-04-10T17:23:03.369Z,17.06
2023-04-10T17:25:30.413Z,16.98
2023-04-10T17:27:57.535Z,16.95
2023-04-10T17:30:26.154Z,16.89
2023-04-10T17:32:54.159Z,16.86
2023-04-10T17:35:21.175Z,16.77
2023-04-10T17:37:48.031Z,16.77
2023-04-10T17:40:14.870Z,16.67
2023-04-10T17:42:42.441Z,16.65
2023-04-10T17:45:10.575Z,16.56
2023-04-10T17:47:38.911Z,16.53
2023-04-10T17:50:08.010Z,16.54
2023-04-10T17:52:35.320Z,16.49
2023-04-10T17:55:02.503Z,16.49
2023-04-10T17:57:29.325Z,16.40
2023-04-10T17:59:56.411Z,16.36
2023-04-10T18:02:23.386Z,16.33
2023-04-10T18:04:51.793Z,16.31
2023-04-10T18:07:19.073Z,16.26
2023-04-10T18:09:48.618Z,16.24
2023-04-10T18:12:15.507Z,16.19
2023-04-10T18:14:42.729Z,16.17
2023-04-10T18:17:09.700Z,16.14
2023-04-10T18:19:37.025Z,16.07
2023-04-10T18:22:05.337Z,16.04
2023-04-10T18:24:32.317Z,15.97
2023-04-10T18:26:59.424Z,16.04
2023-04-10T18:29:26.506Z,16.02
2023-04-10T18:31:53.606Z,15.94
2023-04-10T18:34:20.659Z,15.87
2023-04-10T18:36:48.482Z,15.80
2023-04-10T18:39:17.117Z,15.62
2023-04-10T18:41:44.032Z,15.76
2023-04-10T18:44:11.555Z,15.76
2023-04-10T18:46:44.380Z,15.75
2023-04-10T18:49:13.592Z,15.79
2023-04-10T18:51:40.943Z,15.76
2023-04-10T18:54:08.231Z,15.69
2023-04-10T18:56:36.530Z,15.62
2023-04-10T18:59:04.360Z,15.50
2023-04-10T19:01:31.318Z,15.42
2023-04-10T19:03:58.803Z,15.53
2023-04-10T19:06:25.943Z,15.53
2023-04-10T19:08:53.301Z,15.49
2023-04-10T19:11:20.250Z,15.50
2023-04-10T19:13:48.793Z,15.54
2023-04-10T19:16:16.065Z,15.63
2023-04-10T19:18:42.957Z,15.69
2023-04-10T19:21:10.214Z,15.70
2023-04-10T19:23:37.697Z,15.66
2023-04-10T19:26:05.780Z,15.69
2023-04-10T19:28:34.693Z,15.62
2023-04-10T19:31:03.411Z,15.57
2023-04-10T19:37:19.846Z,15.66
2023-04-10T19:39:46.890Z,15.65
2023-04-10T19:42:14.059Z,15.51
2023-04-10T19:44:41.385Z,15.31
2023-04-10T19:47:09.809Z,15.19
2023-04-10T19:49:36.918Z,15.11
2023-04-10T19:52:04.330Z,15.01
2023-04-10T19:54:31.440Z,14.99
2023-04-10T19:56:58.387Z,15.03
2023-04-10T19:59:25.495Z,15.09
2023-04-10T20:01:55.174Z,15.15
2023-04-10T20:04:24.868Z,15.08
2023-04-10T20:06:52.124Z,15.05
2023-04-10T20:09:19.038Z,15.07
2023-04-10T20:11:47.869Z,15.08
2023-04-10T20:14:14.751Z,14.98
2023-04-10T20:16:41.784Z,14.95
2023-04-10T20:19:09.042Z,14.92
2023-04-10T20:21:37.460Z,14.90
2023-04-10T20:24:04.984Z,14.85
2023-04-10T20:26:32.029Z,14.90
2023-04-10T20:28:59.543Z,14.85
2023-04-10T20:31:26.950Z,14.79
2023-04-10T20:33:57.009Z,14.68
2023-04-10T20:36:23.970Z,14.64
2023-04-10T20:38:52.553Z,14.60
2023-04-10T20:41:19.883Z,14.60
2023-04-10T20:43:47.035Z,14.62
2023-04-10T20:46:13.920Z,14.62
2023-04-10T20:48:40.839Z,14.66
2023-04-10T20:51:09.364Z,14.77
2023-04-10T20:53:36.317Z,14.75
2023-04-10T20:56:06.478Z,14.72
2023-04-10T20:58:34.689Z,14.74
2023-04-10T21:01:02.892Z,14.81
2023-04-10T21:03:30.292Z,14.75
2023-04-10T21:05:57.454Z,14.78
2023-04-10T21:08:24.488Z,14.85
2023-04-10T21:10:51.755Z,14.86
2023-04-10T21:13:21.164Z,14.86
2023-04-10T21:15:48.575Z,14.76
2023-04-10T21:18:15.438Z,14.77
2023-04-10T21:20:42.427Z,14.86
2023-04-10T21:23:10.672Z,14.91
2023-04-10T21:25:39.659Z,14.90
2023-04-10T21:28:06.684Z,14.95
2023-04-10T21:30:35.089Z,15.03
2023-04-10T21:33:02.128Z,15.01
2023-04-10T21:35:29.089Z,14.92
2023-04-10T21:37:56.001Z,14.81
2023-04-10T21:40:23.312Z,14.81
2023-04-10T21:42:50.311Z,14.75
2023-04-10T21:45:17.540Z,14.71
2023-04-10T21:47:45.800Z,14.70
2023-04-10T21:50:12.689Z,14.66
2023-04-10T21:52:39.596Z,14.62
2023-04-10T21:55:08.359Z,14.62
2023-04-10T21:57:35.203Z,14.60
2023-04-10T22:00:02.437Z,14.55
2023-04-10T22:02:32.618Z,14.58
2023-04-10T22:05:01.674Z,14.61
2023-04-10T22:07:28.578Z,14.64
2023-04-10T22:09:55.791Z,14.65
2023-04-10T22:12:22.637Z,14.67
2023-04-10T22:14:49.707Z,14.63
2023-04-10T22:17:16.887Z,14.64
2023-04-10T22:19:43.926Z,14.66
2023-04-10T22:22:13.722Z,14.65
2023-04-10T22:24:40.743Z,14.62
2023-04-10T22:27:07.723Z,14.67
2023-04-10T22:29:35.819Z,14.64
2023-04-10T22:32:02.739Z,14.58
2023-04-10T22:34:29.526Z,14.56
2023-04-10T22:36:56.603Z,14.63
2023-04-10T22:39:24.834Z,14.66
2023-04-10T22:41:51.783Z,14.75
2023-04-10T22:44:18.778Z,14.81
2023-04-10T22:46:45.931Z,14.78
2023-04-10T22:49:13.051Z,14.83
2023-04-10T22:51:39.954Z,14.78
2023-04-10T22:54:06.925Z,14.74
2023-04-10T22:56:37.121Z,14.75
2023-04-10T22:59:04.857Z,14.72
2023-04-10T23:01:31.887Z,14.71
2023-04-10T23:03:58.897Z,14.72
2023-04-10T23:06:26.082Z,14.75
2023-04-10T23:08:53.007Z,14.78
2023-04-10T23:11:20.435Z,14.77
2023-04-10T23:13:48.686Z,14.77
2023-04-10T23:16:15.729Z,14.76
2023-04-10T23:18:42.638Z,14.68
2023-04-10T23:21:10.061Z,14.58
2023-04-10T23:23:36.970Z,14.53
2023-04-10T23:26:04.290Z,14.55
2023-04-10T23:28:31.435Z,14.57
2023-04-10T23:30:59.677Z,14.58
2023-04-10T23:33:26.531Z,14.62
2023-04-10T23:35:53.522Z,14.62
2023-04-10T23:38:20.762Z,14.69
2023-04-10T23:40:47.784Z,14.70
2023-04-10T23:43:14.813Z,14.85
2023-04-10T23:45:43.370Z,14.89
2023-04-10T23:48:11.660Z,14.89
2023-04-10T23:50:38.624Z,14.99
2023-04-10T23:53:05.581Z,15.08
2023-04-10T23:55:33.002Z,15.29
2023-04-10T23:58:00.312Z,15.49
